sensor_id;sensor_type;location;lat;lon;timestamp;P1;durP1;ratioP1;P2;durP2;ratioP2
23702;SDS011;12030;50.376;8.762;2022-07-04T00:02:18;0.90;;;0.63;;
23702;SDS011;12030;50.376;8.762;2022-07-04T00:04:44;1.30;;;0.70;;
23702;SDS011;12030;50.376;8.762;2022-07-04T00:07:09;2.97;;;0.80;;
23702;SDS011;12030;50.376;8.762;2022-07-04T00:09:35;1.23;;;0.90;;
23702;SDS011;12030;50.376;8.762;2022-07-04T00:12:00;2.30;;;0.80;;
23702;SDS011;12030;50.376;8.762;2022-07-04T00:14:26;1.30;;;0.70;;
23702;SDS011;12030;50.376;8.762;2022-07-04T00:16:51;1.00;;;0.60;;
23702;SDS011;12030;50.376;8.762;2022-07-04T00:19:17;2.10;;;0.60;;
23702;SDS011;12030;50.376;8.762;2022-07-04T00:21:42;0.93;;;0.60;;
23702;SDS011;12030;50.376;8.762;2022-07-04T00:24:08;1.27;;;0.70;;
23702;SDS011;12030;50.376;8.762;2022-07-04T00:26:33;0.88;;;0.60;;
23702;SDS011;12030;50.376;8.762;2022-07-04T00:28:59;1.65;;;0.60;;
23702;SDS011;12030;50.376;8.762;2022-07-04T00:31:25;2.70;;;0.70;;
23702;SDS011;12030;50.376;8.762;2022-07-04T00:33:50;1.57;;;0.80;;
23702;SDS011;12030;50.376;8.762;2022-07-04T00:36:16;2.60;;;1.00;;
23702;SDS011;12030;50.376;8.762;2022-07-04T00:38:41;1.10;;;0.70;;
23702;SDS011;12030;50.376;8.762;2022-07-04T00:41:07;2.40;;;0.70;;
23702;SDS011;12030;50.376;8.762;2022-07-04T00:43:32;2.30;;;0.90;;
23702;SDS011;12030;50.376;8.762;2022-07-04T00:45:58;1.50;;;0.80;;
23702;SDS011;12030;50.376;8.762;2022-07-04T00:48:29;2.35;;;0.80;;
23702;SDS011;12030;50.376;8.762;2022-07-04T00:50:55;0.82;;;0.60;;
23702;SDS011;12030;50.376;8.762;2022-07-04T00:53:21;2.40;;;0.83;;
23702;SDS011;12030;50.376;8.762;2022-07-04T00:55:48;1.80;;;0.70;;
23702;SDS011;12030;50.376;8.762;2022-07-04T00:58:15;1.20;;;0.70;;
23702;SDS011;12030;50.376;8.762;2022-07-04T01:00:45;2.75;;;0.80;;
23702;SDS011;12030;50.376;8.762;2022-07-04T01:03:10;3.10;;;0.90;;
23702;SDS011;12030;50.376;8.762;2022-07-04T01:05:36;0.87;;;0.70;;
23702;SDS011;12030;50.376;8.762;2022-07-04T01:08:04;1.43;;;0.77;;
23702;SDS011;12030;50.376;8.762;2022-07-04T01:10:30;3.05;;;0.90;;
23702;SDS011;12030;50.376;8.762;2022-07-04T01:12:56;1.75;;;0.98;;
23702;SDS011;12030;50.376;8.762;2022-07-04T01:15:21;1.75;;;0.90;;
23702;SDS011;12030;50.376;8.762;2022-07-04T01:17:47;1.52;;;0.80;;
23702;SDS011;12030;50.376;8.762;2022-07-04T01:20:13;1.10;;;0.80;;
23702;SDS011;12030;50.376;8.762;2022-07-04T01:22:38;1.50;;;1.00;;
23702;SDS011;12030;50.376;8.762;2022-07-04T01:25:04;1.45;;;0.90;;
23702;SDS011;12030;50.376;8.762;2022-07-04T01:27:30;1.53;;;0.90;;
23702;SDS011;12030;50.376;8.762;2022-07-04T01:29:56;1.80;;;0.90;;
23702;SDS011;12030;50.376;8.762;2022-07-04T01:32:21;1.67;;;0.90;;
23702;SDS011;12030;50.376;8.762;2022-07-04T01:34:47;2.30;;;0.90;;
23702;SDS011;12030;50.376;8.762;2022-07-04T01:37:12;1.77;;;0.85;;
23702;SDS011;12030;50.376;8.762;2022-07-04T01:39:38;1.92;;;0.90;;
23702;SDS011;12030;50.376;8.762;2022-07-04T01:42:04;2.55;;;0.93;;
23702;SDS011;12030;50.376;8.762;2022-07-04T01:44:30;2.58;;;0.88;;
23702;SDS011;12030;50.376;8.762;2022-07-04T01:46:56;1.07;;;0.80;;
23702;SDS011;12030;50.376;8.762;2022-07-04T01:49:21;1.13;;;0.87;;
23702;SDS011;12030;50.376;8.762;2022-07-04T01:51:48;2.60;;;0.97;;
23702;SDS011;12030;50.376;8.762;2022-07-04T01:54:14;4.23;;;1.00;;
23702;SDS011;12030;50.376;8.762;2022-07-04T01:56:41;1.80;;;1.10;;
23702;SDS011;12030;50.376;8.762;2022-07-04T01:59:07;2.60;;;1.05;;
23702;SDS011;12030;50.376;8.762;2022-07-04T02:01:33;3.63;;;1.00;;
23702;SDS011;12030;50.376;8.762;2022-07-04T02:04:00;1.10;;;0.83;;
23702;SDS011;12030;50.376;8.762;2022-07-04T02:06:27;1.30;;;0.80;;
23702;SDS011;12030;50.376;8.762;2022-07-04T02:08:54;0.80;;;0.60;;
23702;SDS011;12030;50.376;8.762;2022-07-04T02:11:38;0.60;;;0.60;;
23702;SDS011;12030;50.376;8.762;2022-07-04T02:14:23;1.50;;;0.80;;
23702;SDS011;12030;50.376;8.762;2022-07-04T02:16:49;2.23;;;0.80;;
23702;SDS011;12030;50.376;8.762;2022-07-04T02:19:15;1.60;;;1.20;;
23702;SDS011;12030;50.376;8.762;2022-07-04T02:21:40;1.53;;;0.90;;
23702;SDS011;12030;50.376;8.762;2022-07-04T02:24:07;1.83;;;1.00;;
23702;SDS011;12030;50.376;8.762;2022-07-04T02:26:32;0.97;;;0.80;;
23702;SDS011;12030;50.376;8.762;2022-07-04T02:28:58;1.33;;;0.90;;
23702;SDS011;12030;50.376;8.762;2022-07-04T02:31:23;6.27;;;1.20;;
23702;SDS011;12030;50.376;8.762;2022-07-04T02:33:50;3.20;;;1.30;;
23702;SDS011;12030;50.376;8.762;2022-07-04T02:36:15;0.87;;;0.87;;
23702;SDS011;12030;50.376;8.762;2022-07-04T02:38:41;2.27;;;1.20;;
23702;SDS011;12030;50.376;8.762;2022-07-04T02:41:06;1.73;;;0.97;;
23702;SDS011;12030;50.376;8.762;2022-07-04T02:43:32;0.83;;;0.80;;
23702;SDS011;12030;50.376;8.762;2022-07-04T02:45:57;0.97;;;0.80;;
23702;SDS011;12030;50.376;8.762;2022-07-04T02:48:23;1.53;;;0.70;;
23702;SDS011;12030;50.376;8.762;2022-07-04T02:50:48;1.37;;;1.00;;
23702;SDS011;12030;50.376;8.762;2022-07-04T02:53:14;3.13;;;1.10;;
23702;SDS011;12030;50.376;8.762;2022-07-04T02:55:39;3.00;;;1.10;;
23702;SDS011;12030;50.376;8.762;2022-07-04T02:58:05;2.10;;;0.97;;
23702;SDS011;12030;50.376;8.762;2022-07-04T03:00:30;2.40;;;1.10;;
23702;SDS011;12030;50.376;8.762;2022-07-04T03:02:56;1.95;;;1.23;;
23702;SDS011;12030;50.376;8.762;2022-07-04T03:05:21;1.70;;;1.10;;
23702;SDS011;12030;50.376;8.762;2022-07-04T03:07:47;1.70;;;1.20;;
23702;SDS011;12030;50.376;8.762;2022-07-04T03:10:12;1.45;;;1.05;;
23702;SDS011;12030;50.376;8.762;2022-07-04T03:12:38;2.27;;;1.20;;
23702;SDS011;12030;50.376;8.762;2022-07-04T03:15:04;3.60;;;1.10;;
23702;SDS011;12030;50.376;8.762;2022-07-04T03:17:29;1.38;;;0.90;;
23702;SDS011;12030;50.376;8.762;2022-07-04T03:19:55;2.00;;;1.20;;
23702;SDS011;12030;50.376;8.762;2022-07-04T03:22:22;3.08;;;1.10;;
23702;SDS011;12030;50.376;8.762;2022-07-04T03:24:47;1.17;;;1.07;;
23702;SDS011;12030;50.376;8.762;2022-07-04T03:27:13;3.00;;;1.20;;
23702;SDS011;12030;50.376;8.762;2022-07-04T03:29:38;2.25;;;1.05;;
23702;SDS011;12030;50.376;8.762;2022-07-04T03:32:04;4.60;;;1.10;;
23702;SDS011;12030;50.376;8.762;2022-07-04T03:34:30;1.60;;;1.27;;
23702;SDS011;12030;50.376;8.762;2022-07-04T03:36:56;1.52;;;1.10;;
23702;SDS011;12030;50.376;8.762;2022-07-04T03:39:22;2.20;;;1.13;;
23702;SDS011;12030;50.376;8.762;2022-07-04T03:41:47;2.13;;;1.30;;
23702;SDS011;12030;50.376;8.762;2022-07-04T03:44:13;2.67;;;1.30;;
23702;SDS011;12030;50.376;8.762;2022-07-04T03:46:39;2.20;;;1.10;;
23702;SDS011;12030;50.376;8.762;2022-07-04T03:49:04;2.30;;;1.00;;
23702;SDS011;12030;50.376;8.762;2022-07-04T03:51:30;1.60;;;1.10;;
23702;SDS011;12030;50.376;8.762;2022-07-04T03:53:56;2.03;;;1.50;;
23702;SDS011;12030;50.376;8.762;2022-07-04T03:56:22;3.60;;;1.30;;
23702;SDS011;12030;50.376;8.762;2022-07-04T03:58:47;2.07;;;1.20;;
23702;SDS011;12030;50.376;8.762;2022-07-04T04:01:14;2.05;;;1.15;;
23702;SDS011;12030;50.376;8.762;2022-07-04T04:03:43;2.67;;;1.08;;
23702;SDS011;12030;50.376;8.762;2022-07-04T04:06:28;2.15;;;1.10;;
23702;SDS011;12030;50.376;8.762;2022-07-04T04:08:54;1.85;;;1.10;;
23702;SDS011;12030;50.376;8.762;2022-07-04T04:11:20;1.70;;;1.13;;
23702;SDS011;12030;50.376;8.762;2022-07-04T04:13:46;2.37;;;1.10;;
23702;SDS011;12030;50.376;8.762;2022-07-04T04:16:11;3.78;;;1.30;;
23702;SDS011;12030;50.376;8.762;2022-07-04T04:18:37;3.63;;;1.90;;
23702;SDS011;12030;50.376;8.762;2022-07-04T04:21:03;1.30;;;1.15;;
23702;SDS011;12030;50.376;8.762;2022-07-04T04:23:29;2.22;;;1.30;;
23702;SDS011;12030;50.376;8.762;2022-07-04T04:25:55;1.70;;;1.20;;
23702;SDS011;12030;50.376;8.762;2022-07-04T04:28:20;2.27;;;1.07;;
23702;SDS011;12030;50.376;8.762;2022-07-04T04:30:46;1.83;;;1.10;;
23702;SDS011;12030;50.376;8.762;2022-07-04T04:33:12;3.10;;;1.37;;
23702;SDS011;12030;50.376;8.762;2022-07-04T04:35:37;2.53;;;1.20;;
23702;SDS011;12030;50.376;8.762;2022-07-04T04:38:03;1.93;;;1.30;;
23702;SDS011;12030;50.376;8.762;2022-07-04T04:40:29;1.80;;;1.35;;
23702;SDS011;12030;50.376;8.762;2022-07-04T04:42:55;2.78;;;1.27;;
23702;SDS011;12030;50.376;8.762;2022-07-04T04:45:20;2.57;;;1.27;;
23702;SDS011;12030;50.376;8.762;2022-07-04T04:47:46;1.70;;;1.10;;
23702;SDS011;12030;50.376;8.762;2022-07-04T04:50:12;2.10;;;1.20;;
23702;SDS011;12030;50.376;8.762;2022-07-04T04:52:39;2.25;;;1.20;;
23702;SDS011;12030;50.376;8.762;2022-07-04T04:55:08;3.57;;;1.40;;
23702;SDS011;12030;50.376;8.762;2022-07-04T04:57:34;2.92;;;1.00;;
23702;SDS011;12030;50.376;8.762;2022-07-04T05:00:00;3.92;;;1.10;;
23702;SDS011;12030;50.376;8.762;2022-07-04T05:02:25;4.97;;;1.17;;
23702;SDS011;12030;50.376;8.762;2022-07-04T05:04:51;3.40;;;1.10;;
23702;SDS011;12030;50.376;8.762;2022-07-04T05:07:17;1.83;;;1.30;;
23702;SDS011;12030;50.376;8.762;2022-07-04T05:09:43;2.15;;;1.20;;
23702;SDS011;12030;50.376;8.762;2022-07-04T05:12:09;1.63;;;1.20;;
23702;SDS011;12030;50.376;8.762;2022-07-04T05:14:34;2.77;;;1.30;;
23702;SDS011;12030;50.376;8.762;2022-07-04T05:17:00;2.20;;;1.20;;
23702;SDS011;12030;50.376;8.762;2022-07-04T05:19:25;1.47;;;1.20;;
23702;SDS011;12030;50.376;8.762;2022-07-04T05:21:51;1.83;;;1.17;;
23702;SDS011;12030;50.376;8.762;2022-07-04T05:24:16;1.97;;;1.10;;
23702;SDS011;12030;50.376;8.762;2022-07-04T05:26:42;3.20;;;1.13;;
23702;SDS011;12030;50.376;8.762;2022-07-04T05:29:08;2.13;;;1.00;;
23702;SDS011;12030;50.376;8.762;2022-07-04T05:31:33;1.70;;;1.02;;
23702;SDS011;12030;50.376;8.762;2022-07-04T05:33:59;1.70;;;1.05;;
23702;SDS011;12030;50.376;8.762;2022-07-04T05:36:25;2.40;;;1.03;;
23702;SDS011;12030;50.376;8.762;2022-07-04T05:38:51;4.43;;;1.27;;
23702;SDS011;12030;50.376;8.762;2022-07-04T05:41:24;3.13;;;1.00;;
23702;SDS011;12030;50.376;8.762;2022-07-04T05:43:50;2.05;;;1.00;;
23702;SDS011;12030;50.376;8.762;2022-07-04T05:46:15;3.37;;;1.00;;
23702;SDS011;12030;50.376;8.762;2022-07-04T05:48:41;4.85;;;1.25;;
23702;SDS011;12030;50.376;8.762;2022-07-04T05:51:07;1.63;;;1.00;;
23702;SDS011;12030;50.376;8.762;2022-07-04T05:53:32;2.90;;;0.95;;
23702;SDS011;12030;50.376;8.762;2022-07-04T05:55:58;1.80;;;1.00;;
23702;SDS011;12030;50.376;8.762;2022-07-04T05:58:24;2.70;;;1.00;;
23702;SDS011;12030;50.376;8.762;2022-07-04T06:00:50;2.83;;;1.00;;
23702;SDS011;12030;50.376;8.762;2022-07-04T06:03:15;2.40;;;1.05;;
23702;SDS011;12030;50.376;8.762;2022-07-04T06:05:41;2.13;;;1.10;;
23702;SDS011;12030;50.376;8.762;2022-07-04T06:08:06;1.70;;;0.82;;
23702;SDS011;12030;50.376;8.762;2022-07-04T06:10:32;1.95;;;0.80;;
23702;SDS011;12030;50.376;8.762;2022-07-04T06:12:58;1.63;;;0.90;;
23702;SDS011;12030;50.376;8.762;2022-07-04T06:15:24;1.73;;;1.00;;
23702;SDS011;12030;50.376;8.762;2022-07-04T06:17:49;2.30;;;0.60;;
23702;SDS011;12030;50.376;8.762;2022-07-04T06:20:15;1.53;;;0.80;;
23702;SDS011;12030;50.376;8.762;2022-07-04T06:22:41;1.30;;;0.70;;
23702;SDS011;12030;50.376;8.762;2022-07-04T06:25:11;6.05;;;1.30;;
23702;SDS011;12030;50.376;8.762;2022-07-04T06:27:38;2.13;;;0.70;;
23702;SDS011;12030;50.376;8.762;2022-07-04T06:30:04;1.67;;;0.70;;
23702;SDS011;12030;50.376;8.762;2022-07-04T06:32:31;1.50;;;0.80;;
23702;SDS011;12030;50.376;8.762;2022-07-04T06:35:09;1.83;;;0.70;;
23702;SDS011;12030;50.376;8.762;2022-07-04T06:37:53;2.50;;;0.60;;
23702;SDS011;12030;50.376;8.762;2022-07-04T06:40:19;2.20;;;0.60;;
23702;SDS011;12030;50.376;8.762;2022-07-04T06:42:44;2.90;;;0.60;;
23702;SDS011;12030;50.376;8.762;2022-07-04T06:45:10;0.90;;;0.40;;
23702;SDS011;12030;50.376;8.762;2022-07-04T06:47:35;2.13;;;0.67;;
23702;SDS011;12030;50.376;8.762;2022-07-04T06:50:01;1.70;;;0.70;;
23702;SDS011;12030;50.376;8.762;2022-07-04T06:52:27;1.88;;;0.77;;
23702;SDS011;12030;50.376;8.762;2022-07-04T06:54:52;1.10;;;0.45;;
23702;SDS011;12030;50.376;8.762;2022-07-04T06:57:18;2.55;;;0.70;;
23702;SDS011;12030;50.376;8.762;2022-07-04T06:59:43;2.03;;;0.57;;
23702;SDS011;12030;50.376;8.762;2022-07-04T07:02:09;1.40;;;0.57;;
23702;SDS011;12030;50.376;8.762;2022-07-04T07:04:34;1.10;;;0.53;;
23702;SDS011;12030;50.376;8.762;2022-07-04T07:07:00;1.17;;;0.50;;
23702;SDS011;12030;50.376;8.762;2022-07-04T07:09:25;1.67;;;0.50;;
23702;SDS011;12030;50.376;8.762;2022-07-04T07:11:51;1.43;;;0.40;;
23702;SDS011;12030;50.376;8.762;2022-07-04T07:14:16;2.07;;;0.50;;
23702;SDS011;12030;50.376;8.762;2022-07-04T07:16:42;1.03;;;0.37;;
23702;SDS011;12030;50.376;8.762;2022-07-04T07:19:07;2.30;;;0.80;;
23702;SDS011;12030;50.376;8.762;2022-07-04T07:21:33;1.37;;;0.40;;
23702;SDS011;12030;50.376;8.762;2022-07-04T07:23:58;1.50;;;0.40;;
23702;SDS011;12030;50.376;8.762;2022-07-04T07:26:25;2.95;;;0.60;;
23702;SDS011;12030;50.376;8.762;2022-07-04T07:28:51;2.05;;;0.43;;
23702;SDS011;12030;50.376;8.762;2022-07-04T07:31:16;1.40;;;0.40;;
23702;SDS011;12030;50.376;8.762;2022-07-04T07:33:42;0.93;;;0.30;;
23702;SDS011;12030;50.376;8.762;2022-07-04T07:36:07;1.60;;;0.60;;
23702;SDS011;12030;50.376;8.762;2022-07-04T07:38:33;1.38;;;0.40;;
23702;SDS011;12030;50.376;8.762;2022-07-04T07:40:58;0.90;;;0.40;;
23702;SDS011;12030;50.376;8.762;2022-07-04T07:43:24;0.93;;;0.40;;
23702;SDS011;12030;50.376;8.762;2022-07-04T07:45:50;0.80;;;0.40;;
23702;SDS011;12030;50.376;8.762;2022-07-04T07:48:15;1.60;;;0.40;;
23702;SDS011;12030;50.376;8.762;2022-07-04T07:50:41;1.20;;;0.30;;
23702;SDS011;12030;50.376;8.762;2022-07-04T07:53:06;2.00;;;0.53;;
23702;SDS011;12030;50.376;8.762;2022-07-04T07:55:32;2.70;;;0.53;;
23702;SDS011;12030;50.376;8.762;2022-07-04T07:57:58;1.17;;;0.43;;
23702;SDS011;12030;50.376;8.762;2022-07-04T08:00:24;1.48;;;0.47;;
23702;SDS011;12030;50.376;8.762;2022-07-04T08:02:50;2.80;;;0.57;;
23702;SDS011;12030;50.376;8.762;2022-07-04T08:05:34;1.60;;;0.30;;
23702;SDS011;12030;50.376;8.762;2022-07-04T08:08:00;0.50;;;0.30;;
23702;SDS011;12030;50.376;8.762;2022-07-04T08:10:26;1.70;;;0.50;;
23702;SDS011;12030;50.376;8.762;2022-07-04T08:12:51;2.40;;;0.60;;
23702;SDS011;12030;50.376;8.762;2022-07-04T08:15:17;2.00;;;0.40;;
23702;SDS011;12030;50.376;8.762;2022-07-04T08:17:43;1.23;;;0.30;;
23702;SDS011;12030;50.376;8.762;2022-07-04T08:20:09;0.88;;;0.40;;
23702;SDS011;12030;50.376;8.762;2022-07-04T08:22:35;1.25;;;0.40;;
23702;SDS011;12030;50.376;8.762;2022-07-04T08:25:01;1.75;;;0.47;;
23702;SDS011;12030;50.376;8.762;2022-07-04T08:27:27;1.00;;;0.40;;
23702;SDS011;12030;50.376;8.762;2022-07-04T08:29:52;0.60;;;0.30;;
23702;SDS011;12030;50.376;8.762;2022-07-04T08:32:18;1.10;;;0.30;;
23702;SDS011;12030;50.376;8.762;2022-07-04T08:34:43;1.57;;;0.40;;
23702;SDS011;12030;50.376;8.762;2022-07-04T08:37:09;1.03;;;0.30;;
23702;SDS011;12030;50.376;8.762;2022-07-04T08:39:35;1.43;;;0.40;;
23702;SDS011;12030;50.376;8.762;2022-07-04T08:42:05;2.40;;;0.50;;
23702;SDS011;12030;50.376;8.762;2022-07-04T08:44:36;1.23;;;0.30;;
23702;SDS011;12030;50.376;8.762;2022-07-04T08:47:05;1.20;;;0.50;;
23702;SDS011;12030;50.376;8.762;2022-07-04T08:49:34;0.90;;;0.30;;
23702;SDS011;12030;50.376;8.762;2022-07-04T08:52:02;1.52;;;0.38;;
23702;SDS011;12030;50.376;8.762;2022-07-04T08:54:30;2.13;;;0.40;;
23702;SDS011;12030;50.376;8.762;2022-07-04T08:57:15;1.10;;;0.30;;
23702;SDS011;12030;50.376;8.762;2022-07-04T09:00:00;1.20;;;0.43;;
23702;SDS011;12030;50.376;8.762;2022-07-04T09:02:29;1.00;;;0.30;;
23702;SDS011;12030;50.376;8.762;2022-07-04T09:04:54;0.98;;;0.30;;
23702;SDS011;12030;50.376;8.762;2022-07-04T09:07:20;0.40;;;0.20;;
23702;SDS011;12030;50.376;8.762;2022-07-04T09:09:46;2.00;;;0.40;;
23702;SDS011;12030;50.376;8.762;2022-07-04T09:12:12;0.68;;;0.20;;
23702;SDS011;12030;50.376;8.762;2022-07-04T09:14:38;1.15;;;0.35;;
23702;SDS011;12030;50.376;8.762;2022-07-04T09:17:04;0.70;;;0.40;;
23702;SDS011;12030;50.376;8.762;2022-07-04T09:19:30;1.80;;;0.40;;
23702;SDS011;12030;50.376;8.762;2022-07-04T09:21:58;0.40;;;0.15;;
23702;SDS011;12030;50.376;8.762;2022-07-04T09:24:43;0.90;;;0.30;;
23702;SDS011;12030;50.376;8.762;2022-07-04T09:27:33;1.20;;;0.38;;
23702;SDS011;12030;50.376;8.762;2022-07-04T09:30:00;1.07;;;0.30;;
23702;SDS011;12030;50.376;8.762;2022-07-04T09:32:40;1.30;;;0.20;;
23702;SDS011;12030;50.376;8.762;2022-07-04T09:35:16;2.15;;;0.40;;
23702;SDS011;12030;50.376;8.762;2022-07-04T09:37:44;0.60;;;0.20;;
23702;SDS011;12030;50.376;8.762;2022-07-04T09:40:21;1.67;;;0.30;;
23702;SDS011;12030;50.376;8.762;2022-07-04T09:42:53;3.00;;;0.40;;
23702;SDS011;12030;50.376;8.762;2022-07-04T09:45:20;1.40;;;0.60;;
23702;SDS011;12030;50.376;8.762;2022-07-04T09:47:49;1.60;;;0.40;;
23702;SDS011;12030;50.376;8.762;2022-07-04T09:50:18;1.08;;;0.22;;
23702;SDS011;12030;50.376;8.762;2022-07-04T09:52:46;1.13;;;0.30;;
23702;SDS011;12030;50.376;8.762;2022-07-04T09:55:19;0.77;;;0.20;;
23702;SDS011;12030;50.376;8.762;2022-07-04T09:57:46;0.40;;;0.20;;
23702;SDS011;12030;50.376;8.762;2022-07-04T10:00:25;3.07;;;0.50;;
23702;SDS011;12030;50.376;8.762;2022-07-04T10:02:53;1.80;;;0.40;;
23702;SDS011;12030;50.376;8.762;2022-07-04T10:05:21;1.27;;;0.40;;
23702;SDS011;12030;50.376;8.762;2022-07-04T10:07:48;0.98;;;0.40;;
23702;SDS011;12030;50.376;8.762;2022-07-04T10:13:00;1.45;;;0.30;;
23702;SDS011;12030;50.376;8.762;2022-07-04T10:15:28;1.53;;;0.30;;
23702;SDS011;12030;50.376;8.762;2022-07-04T10:17:54;0.90;;;0.37;;
23702;SDS011;12030;50.376;8.762;2022-07-04T10:20:19;1.10;;;0.30;;
23702;SDS011;12030;50.376;8.762;2022-07-04T10:22:45;0.70;;;0.30;;
23702;SDS011;12030;50.376;8.762;2022-07-04T10:25:11;0.52;;;0.20;;
23702;SDS011;12030;50.376;8.762;2022-07-04T10:27:37;0.80;;;0.30;;
23702;SDS011;12030;50.376;8.762;2022-07-04T10:30:04;1.55;;;0.40;;
23702;SDS011;12030;50.376;8.762;2022-07-04T10:32:32;0.70;;;0.30;;
23702;SDS011;12030;50.376;8.762;2022-07-04T10:34:58;2.13;;;0.43;;
23702;SDS011;12030;50.376;8.762;2022-07-04T10:37:24;1.70;;;0.30;;
23702;SDS011;12030;50.376;8.762;2022-07-04T10:39:51;1.10;;;0.40;;
23702;SDS011;12030;50.376;8.762;2022-07-04T10:42:25;1.00;;;0.40;;
23702;SDS011;12030;50.376;8.762;2022-07-04T10:44:54;1.27;;;0.30;;
23702;SDS011;12030;50.376;8.762;2022-07-04T10:47:26;2.10;;;0.30;;
23702;SDS011;12030;50.376;8.762;2022-07-04T10:49:55;0.80;;;0.40;;
23702;SDS011;12030;50.376;8.762;2022-07-04T10:52:21;1.30;;;0.30;;
23702;SDS011;12030;50.376;8.762;2022-07-04T10:54:47;1.35;;;0.30;;
23702;SDS011;12030;50.376;8.762;2022-07-04T10:59:42;1.70;;;0.30;;
23702;SDS011;12030;50.376;8.762;2022-07-04T11:20:21;0.57;;;0.28;;
23702;SDS011;12030;50.376;8.762;2022-07-04T11:22:48;1.05;;;0.28;;
23702;SDS011;12030;50.376;8.762;2022-07-04T11:25:14;0.55;;;0.30;;
23702;SDS011;12030;50.376;8.762;2022-07-04T11:27:40;0.68;;;0.28;;
23702;SDS011;12030;50.376;8.762;2022-07-04T11:30:07;0.40;;;0.20;;
23702;SDS011;12030;50.376;8.762;2022-07-04T11:32:34;1.53;;;0.30;;
23702;SDS011;12030;50.376;8.762;2022-07-04T11:35:01;1.23;;;0.30;;
23702;SDS011;12030;50.376;8.762;2022-07-04T11:37:29;0.50;;;0.20;;
23702;SDS011;12030;50.376;8.762;2022-07-04T11:39:55;1.80;;;0.20;;
23702;SDS011;12030;50.376;8.762;2022-07-04T11:43:02;1.48;;;0.30;;
23702;SDS011;12030;50.376;8.762;2022-07-04T11:45:48;0.43;;;0.23;;
23702;SDS011;12030;50.376;8.762;2022-07-04T11:48:21;1.10;;;0.30;;
23702;SDS011;12030;50.376;8.762;2022-07-04T11:50:50;1.23;;;0.28;;
23702;SDS011;12030;50.376;8.762;2022-07-04T11:53:17;0.98;;;0.30;;
23702;SDS011;12030;50.376;8.762;2022-07-04T11:55:58;1.80;;;0.30;;
23702;SDS011;12030;50.376;8.762;2022-07-04T11:58:38;1.45;;;0.50;;
23702;SDS011;12030;50.376;8.762;2022-07-04T12:01:08;1.02;;;0.40;;
23702;SDS011;12030;50.376;8.762;2022-07-04T12:03:35;0.65;;;0.28;;
23702;SDS011;12030;50.376;8.762;2022-07-04T12:06:03;1.58;;;0.30;;
23702;SDS011;12030;50.376;8.762;2022-07-04T12:08:31;0.88;;;0.30;;
23702;SDS011;12030;50.376;8.762;2022-07-04T12:10:57;0.50;;;0.30;;
23702;SDS011;12030;50.376;8.762;2022-07-04T12:13:22;1.30;;;0.20;;
23702;SDS011;12030;50.376;8.762;2022-07-04T12:15:49;0.73;;;0.30;;
23702;SDS011;12030;50.376;8.762;2022-07-04T12:18:27;1.10;;;0.30;;
23702;SDS011;12030;50.376;8.762;2022-07-04T12:21:02;1.05;;;0.60;;
23702;SDS011;12030;50.376;8.762;2022-07-04T12:23:49;0.50;;;0.20;;
23702;SDS011;12030;50.376;8.762;2022-07-04T12:26:17;1.98;;;0.38;;
23702;SDS011;12030;50.376;8.762;2022-07-04T12:28:43;0.65;;;0.30;;
23702;SDS011;12030;50.376;8.762;2022-07-04T12:31:08;0.55;;;0.20;;
23702;SDS011;12030;50.376;8.762;2022-07-04T12:33:35;1.08;;;0.22;;
23702;SDS011;12030;50.376;8.762;2022-07-04T12:36:04;0.30;;;0.20;;
23702;SDS011;12030;50.376;8.762;2022-07-04T12:38:34;4.20;;;2.50;;
23702;SDS011;12030;50.376;8.762;2022-07-04T12:41:08;3.17;;;0.20;;
23702;SDS011;12030;50.376;8.762;2022-07-04T12:46:07;0.70;;;0.20;;
23702;SDS011;12030;50.376;8.762;2022-07-04T12:48:34;0.60;;;0.30;;
23702;SDS011;12030;50.376;8.762;2022-07-04T12:54:08;0.60;;;0.20;;
23702;SDS011;12030;50.376;8.762;2022-07-04T12:56:36;0.70;;;0.23;;
23702;SDS011;12030;50.376;8.762;2022-07-04T12:59:08;2.78;;;0.30;;
23702;SDS011;12030;50.376;8.762;2022-07-04T13:01:39;0.70;;;0.30;;
23702;SDS011;12030;50.376;8.762;2022-07-04T13:04:06;0.93;;;0.20;;
23702;SDS011;12030;50.376;8.762;2022-07-04T13:06:32;0.90;;;0.70;;
23702;SDS011;12030;50.376;8.762;2022-07-04T13:08:59;0.60;;;0.20;;
23702;SDS011;12030;50.376;8.762;2022-07-04T13:11:25;1.25;;;0.20;;
23702;SDS011;12030;50.376;8.762;2022-07-04T13:14:09;0.90;;;0.30;;
23702;SDS011;12030;50.376;8.762;2022-07-04T13:16:35;1.20;;;0.32;;
23702;SDS011;12030;50.376;8.762;2022-07-04T13:19:01;0.40;;;0.20;;
23702;SDS011;12030;50.376;8.762;2022-07-04T13:21:26;1.00;;;0.22;;
23702;SDS011;12030;50.376;8.762;2022-07-04T13:23:52;0.37;;;0.20;;
23702;SDS011;12030;50.376;8.762;2022-07-04T13:26:18;1.70;;;0.60;;
23702;SDS011;12030;50.376;8.762;2022-07-04T13:28:44;0.40;;;0.28;;
23702;SDS011;12030;50.376;8.762;2022-07-04T13:31:09;0.57;;;0.13;;
23702;SDS011;12030;50.376;8.762;2022-07-04T13:33:35;1.30;;;0.30;;
23702;SDS011;12030;50.376;8.762;2022-07-04T13:36:01;1.50;;;0.30;;
23702;SDS011;12030;50.376;8.762;2022-07-04T13:38:26;0.95;;;0.30;;
23702;SDS011;12030;50.376;8.762;2022-07-04T13:40:52;0.57;;;0.30;;
23702;SDS011;12030;50.376;8.762;2022-07-04T13:43:18;2.30;;;0.20;;
23702;SDS011;12030;50.376;8.762;2022-07-04T13:45:43;1.25;;;0.30;;
23702;SDS011;12030;50.376;8.762;2022-07-04T13:48:12;2.20;;;0.30;;
23702;SDS011;12030;50.376;8.762;2022-07-04T13:50:37;1.37;;;0.53;;
23702;SDS011;12030;50.376;8.762;2022-07-04T13:53:06;0.50;;;0.20;;
23702;SDS011;12030;50.376;8.762;2022-07-04T13:55:33;0.70;;;0.40;;
23702;SDS011;12030;50.376;8.762;2022-07-04T13:58:03;1.60;;;0.28;;
23702;SDS011;12030;50.376;8.762;2022-07-04T14:00:30;0.90;;;0.20;;
23702;SDS011;12030;50.376;8.762;2022-07-04T14:02:55;0.40;;;0.30;;
23702;SDS011;12030;50.376;8.762;2022-07-04T14:05:21;0.50;;;0.20;;
23702;SDS011;12030;50.376;8.762;2022-07-04T14:07:47;1.27;;;0.30;;
23702;SDS011;12030;50.376;8.762;2022-07-04T14:10:12;1.52;;;0.30;;
23702;SDS011;12030;50.376;8.762;2022-07-04T14:12:39;1.27;;;0.20;;
23702;SDS011;12030;50.376;8.762;2022-07-04T14:15:05;0.50;;;0.20;;
23702;SDS011;12030;50.376;8.762;2022-07-04T14:17:31;2.15;;;0.20;;
23702;SDS011;12030;50.376;8.762;2022-07-04T14:19:56;0.32;;;0.10;;
23702;SDS011;12030;50.376;8.762;2022-07-04T14:22:22;0.57;;;0.20;;
23702;SDS011;12030;50.376;8.762;2022-07-04T14:24:47;0.47;;;0.20;;
23702;SDS011;12030;50.376;8.762;2022-07-04T14:27:13;2.67;;;0.20;;
23702;SDS011;12030;50.376;8.762;2022-07-04T14:29:39;0.50;;;0.20;;
23702;SDS011;12030;50.376;8.762;2022-07-04T14:32:05;0.20;;;0.20;;
23702;SDS011;12030;50.376;8.762;2022-07-04T14:34:32;0.50;;;0.15;;
23702;SDS011;12030;50.376;8.762;2022-07-04T14:36:58;0.20;;;0.10;;
23702;SDS011;12030;50.376;8.762;2022-07-04T14:39:23;0.32;;;0.22;;
23702;SDS011;12030;50.376;8.762;2022-07-04T14:41:49;0.55;;;0.30;;
23702;SDS011;12030;50.376;8.762;2022-07-04T14:44:14;0.52;;;0.25;;
23702;SDS011;12030;50.376;8.762;2022-07-04T14:46:40;0.40;;;0.20;;
23702;SDS011;12030;50.376;8.762;2022-07-04T14:49:06;0.50;;;0.30;;
23702;SDS011;12030;50.376;8.762;2022-07-04T14:51:31;0.50;;;0.27;;
23702;SDS011;12030;50.376;8.762;2022-07-04T14:53:57;0.77;;;0.20;;
23702;SDS011;12030;50.376;8.762;2022-07-04T14:56:22;0.90;;;0.20;;
23702;SDS011;12030;50.376;8.762;2022-07-04T14:58:48;0.65;;;0.30;;
23702;SDS011;12030;50.376;8.762;2022-07-04T15:01:14;0.43;;;0.30;;
23702;SDS011;12030;50.376;8.762;2022-07-04T15:03:40;0.55;;;0.20;;
23702;SDS011;12030;50.376;8.762;2022-07-04T15:06:05;2.47;;;0.30;;
23702;SDS011;12030;50.376;8.762;2022-07-04T15:08:31;1.40;;;0.40;;
23702;SDS011;12030;50.376;8.762;2022-07-04T15:10:56;2.80;;;0.50;;
23702;SDS011;12030;50.376;8.762;2022-07-04T15:13:22;0.30;;;0.30;;
23702;SDS011;12030;50.376;8.762;2022-07-04T15:15:47;1.30;;;0.30;;
23702;SDS011;12030;50.376;8.762;2022-07-04T15:18:13;0.80;;;0.30;;